Time;durP1;ratioP1;P1;durP2;ratioP2;P2;SDS_P1;SDS_P2;PMS_P1;PMS_P2;Temp;Humidity;BMP_temperature;BMP_pressure;BME280_temperature;BME280_humidity;BME280_pressure;Samples;Min_cycle;Max_cycle;Signal;HPM_P1;HPM_P2
2023/06/22 00:00:32;;;;;;;7.73;6.90;;;18.60;99.90;;;;;;5072151;28;20323;-57
2023/06/22 00:03:00;;;;;;;11.17;7.53;;;18.60;99.90;;;;;;5072568;28;20223;-57
2023/06/22 00:05:28;;;;;;;8.70;7.80;;;18.60;99.90;;;;;;5073483;28;20309;-57
2023/06/22 00:07:56;;;;;;;9.63;7.80;;;18.60;99.90;;;;;;5072497;28;20225;-57
2023/06/22 00:10:24;;;;;;;7.97;7.17;;;18.60;99.90;;;;;;5072406;28;20304;-57
2023/06/22 00:12:54;;;;;;;8.03;7.23;;;18.60;99.90;;;;;;5072417;28;20686;-57
2023/06/22 00:15:22;;;;;;;8.23;7.43;;;18.60;99.90;;;;;;5086784;28;20231;-57
2023/06/22 00:17:50;;;;;;;9.33;8.43;;;18.60;99.90;;;;;;5092261;28;20218;-57
2023/06/22 00:20:18;;;;;;;9.60;8.63;;;18.60;99.90;;;;;;5087779;28;20234;-57
2023/06/22 00:22:47;;;;;;;8.33;7.60;;;18.50;99.90;;;;;;5075951;28;20323;-57
2023/06/22 00:25:15;;;;;;;8.20;7.43;;;18.50;99.90;;;;;;5095539;28;20304;-57
2023/06/22 00:27:43;;;;;;;8.83;7.93;;;18.40;99.90;;;;;;5092327;28;20355;-57
2023/06/22 00:30:14;;;;;;;8.50;7.70;;;18.40;99.90;;;;;;5073876;28;20245;-57
2023/06/22 00:32:42;;;;;;;9.33;8.43;;;18.40;99.90;;;;;;5095804;28;20220;-57
2023/06/22 00:35:10;;;;;;;9.00;8.20;;;18.30;99.90;;;;;;5087201;28;20640;-57
2023/06/22 00:37:41;;;;;;;9.33;8.43;;;18.20;99.90;;;;;;5077231;28;20246;-57
2023/06/22 00:40:11;;;;;;;8.87;7.97;;;18.20;99.90;;;;;;5077736;28;20238;-57
2023/06/22 00:42:40;;;;;;;8.63;7.83;;;18.20;99.90;;;;;;5096254;28;20232;-57
2023/06/22 00:45:09;;;;;;;9.40;8.37;;;18.20;99.90;;;;;;5096187;28;20700;-57
2023/06/22 00:47:39;;;;;;;8.87;7.97;;;18.20;99.90;;;;;;5085934;28;20319;-57
2023/06/22 00:50:09;;;;;;;9.07;7.97;;;18.20;99.90;;;;;;5067742;28;20754;-57
2023/06/22 00:52:43;;;;;;;10.10;9.20;;;18.20;99.90;;;;;;5076810;28;20226;-57
2023/06/22 00:55:11;;;;;;;9.97;9.07;;;18.20;99.90;;;;;;5084757;28;20701;-57
2023/06/22 00:57:39;;;;;;;10.20;9.23;;;18.10;99.90;;;;;;5077590;28;20282;-57
2023/06/22 01:00:11;;;;;;;9.60;8.70;;;18.10;99.90;;;;;;5077714;28;20240;-57
2023/06/22 01:02:41;;;;;;;10.00;9.00;;;18.10;99.90;;;;;;5095473;28;20272;-57
2023/06/22 01:05:09;;;;;;;9.97;8.93;;;18.10;99.90;;;;;;5069018;28;20311;-57
2023/06/22 01:07:44;;;;;;;9.10;8.30;;;18.10;99.90;;;;;;5075737;28;20257;-57
2023/06/22 01:10:20;;;;;;;10.47;9.37;;;18.10;99.90;;;;;;5075530;28;20636;-57
2023/06/22 01:12:55;;;;;;;10.57;9.57;;;18.10;99.90;;;;;;5075326;28;20721;-57
2023/06/22 01:15:32;;;;;;;9.87;8.87;;;18.10;99.90;;;;;;5075397;28;20693;-57
2023/06/22 01:18:04;;;;;;;9.70;8.77;;;18.00;99.90;;;;;;5076934;28;20221;-57
2023/06/22 01:20:36;;;;;;;9.90;8.90;;;18.00;99.90;;;;;;5071761;28;20294;-57
2023/06/22 01:23:19;;;;;;;9.60;8.70;;;18.00;99.90;;;;;;5066771;28;20236;-57
2023/06/22 01:25:54;;;;;;;9.13;8.33;;;18.00;99.90;;;;;;5074883;28;20221;-57
2023/06/22 01:28:46;;;;;;;9.33;8.53;;;17.90;99.90;;;;;;5095540;28;20722;-57
2023/06/22 01:31:18;;;;;;;9.83;8.87;;;18.00;99.90;;;;;;5095045;28;20318;-57
2023/06/22 01:33:51;;;;;;;9.37;8.47;;;17.90;99.90;;;;;;5095304;28;20252;-57
2023/06/22 01:36:20;;;;;;;9.37;8.37;;;17.90;99.90;;;;;;5077141;28;20230;-57
2023/06/22 01:38:49;;;;;;;10.40;9.50;;;17.90;99.90;;;;;;5056989;28;20320;-57
2023/06/22 01:41:20;;;;;;;10.40;9.40;;;17.90;99.90;;;;;;5074605;28;20278;-57
2023/06/22 01:43:51;;;;;;;10.40;9.27;;;17.90;99.90;;;;;;5057862;28;20712;-57
2023/06/22 01:46:21;;;;;;;8.57;7.77;;;17.90;99.90;;;;;;5074825;28;20594;-57
2023/06/22 01:48:50;;;;;;;10.00;9.10;;;17.80;99.90;;;;;;5078178;28;20229;-57
2023/06/22 01:51:18;;;;;;;10.23;9.23;;;17.80;99.90;;;;;;5093113;28;20588;-56
2023/06/22 01:53:47;;;;;;;9.07;8.27;;;17.80;99.90;;;;;;5087697;28;20586;-57
2023/06/22 01:56:18;;;;;;;9.17;8.27;;;17.80;99.90;;;;;;5109554;28;20745;-57
2023/06/22 01:58:56;;;;;;;8.27;7.50;;;17.70;99.90;;;;;;5076356;28;20712;-57
2023/06/22 02:01:29;;;;;;;8.93;7.57;;;17.60;99.90;;;;;;5076015;28;20289;-57
2023/06/22 02:04:04;;;;;;;9.37;8.23;;;17.60;99.90;;;;;;5076623;28;20277;-56
2023/06/22 02:06:37;;;;;;;11.10;8.27;;;17.60;99.90;;;;;;5089870;28;20305;-57
2023/06/22 02:09:10;;;;;;;9.67;8.70;;;17.60;99.90;;;;;;5094528;28;20714;-57
2023/06/22 02:11:41;;;;;;;11.70;10.60;;;17.60;99.90;;;;;;5063166;28;20276;-57
2023/06/22 02:14:11;;;;;;;10.87;9.77;;;17.60;99.90;;;;;;5074308;28;20299;-57
2023/06/22 02:16:41;;;;;;;12.40;10.97;;;17.60;99.90;;;;;;5056636;28;20228;-57
2023/06/22 02:19:10;;;;;;;13.57;12.13;;;17.60;99.90;;;;;;5106081;28;20646;-57
2023/06/22 02:21:38;;;;;;;12.47;11.27;;;17.50;99.90;;;;;;5090002;28;20224;-57
2023/06/22 02:24:06;;;;;;;12.13;10.77;;;17.50;99.90;;;;;;5097582;28;20220;-57
2023/06/22 02:26:34;;;;;;;11.87;10.60;;;17.50;99.90;;;;;;5094258;28;20223;-57
2023/06/22 02:29:03;;;;;;;12.13;10.83;;;17.50;99.90;;;;;;5094287;28;20223;-57
2023/06/22 02:31:32;;;;;;;12.30;11.00;;;17.50;99.90;;;;;;5093844;28;20316;-57
2023/06/22 02:34:01;;;;;;;10.90;9.80;;;17.40;99.90;;;;;;5091707;28;20220;-57
2023/06/22 02:36:30;;;;;;;12.17;10.57;;;17.40;99.90;;;;;;5085942;28;20234;-56
2023/06/22 02:39:01;;;;;;;11.83;10.63;;;17.40;99.90;;;;;;5075840;28;20252;-57
2023/06/22 02:41:31;;;;;;;10.97;9.93;;;17.30;99.90;;;;;;5093780;28;20228;-57
2023/06/22 02:43:59;;;;;;;11.03;9.87;;;17.40;99.90;;;;;;5094149;28;20309;-57
2023/06/22 02:46:27;;;;;;;12.27;11.17;;;17.30;99.90;;;;;;5070247;28;20243;-57
2023/06/22 02:48:56;;;;;;;12.27;11.07;;;17.30;99.90;;;;;;5103719;28;20223;-57
2023/06/22 02:51:24;;;;;;;11.90;10.70;;;17.30;99.90;;;;;;5069378;28;20232;-56
2023/06/22 02:53:57;;;;;;;12.00;10.90;;;17.20;99.90;;;;;;5092965;28;20631;-57
2023/06/22 02:56:30;;;;;;;13.77;12.37;;;17.20;99.90;;;;;;5075398;28;20575;-57
2023/06/22 02:59:01;;;;;;;12.23;11.03;;;17.20;99.90;;;;;;5074945;28;20739;-57
2023/06/22 03:01:37;;;;;;;10.53;9.43;;;17.10;99.90;;;;;;5074591;28;20312;-56
2023/06/22 03:04:08;;;;;;;10.37;9.37;;;17.10;99.90;;;;;;5075424;28;20599;-57
2023/06/22 03:06:38;;;;;;;9.67;8.77;;;17.10;99.90;;;;;;5065815;28;20227;-57
2023/06/22 03:09:06;;;;;;;10.50;9.13;;;17.10;99.90;;;;;;5055322;28;20231;-57
2023/06/22 03:11:36;;;;;;;9.53;8.63;;;17.10;99.90;;;;;;5055059;28;20314;-57
2023/06/22 03:14:04;;;;;;;11.00;9.83;;;17.10;99.90;;;;;;5058873;28;20692;-57
2023/06/22 03:16:33;;;;;;;11.10;10.10;;;17.00;99.90;;;;;;5074836;28;20330;-57
2023/06/22 03:19:01;;;;;;;12.33;11.03;;;17.00;99.90;;;;;;5082958;28;20242;-57
2023/06/22 03:21:31;;;;;;;12.83;11.53;;;17.10;99.90;;;;;;5067330;28;20232;-57
2023/06/22 03:24:01;;;;;;;13.40;12.10;;;17.10;99.90;;;;;;5070810;28;20695;-57
2023/06/22 03:26:29;;;;;;;12.97;11.77;;;17.10;99.90;;;;;;5071331;28;20220;-57
2023/06/22 03:28:58;;;;;;;13.07;11.70;;;17.10;99.90;;;;;;5055018;28;20244;-57
2023/06/22 03:31:26;;;;;;;13.43;12.13;;;17.10;99.90;;;;;;5072342;28;20712;-56
2023/06/22 03:33:55;;;;;;;13.50;12.20;;;17.10;99.90;;;;;;5075426;28;20584;-57
2023/06/22 03:36:24;;;;;;;14.17;12.87;;;17.10;99.90;;;;;;5089324;28;20575;-57
2023/06/22 03:38:53;;;;;;;13.03;11.73;;;17.10;99.90;;;;;;5074895;28;20232;-57
2023/06/22 03:41:21;;;;;;;14.77;13.37;;;17.20;99.90;;;;;;5086721;28;20591;-57
2023/06/22 03:43:50;;;;;;;15.17;13.67;;;17.20;99.90;;;;;;5074303;28;20625;-57
2023/06/22 03:46:19;;;;;;;16.87;14.70;;;17.30;99.90;;;;;;5074227;28;20278;-57
2023/06/22 03:48:48;;;;;;;15.30;13.80;;;17.30;99.90;;;;;;5078364;28;20224;-56
2023/06/22 03:51:16;;;;;;;15.33;13.77;;;17.40;99.90;;;;;;5085672;28;20219;-57
2023/06/22 03:53:44;;;;;;;15.27;13.60;;;17.40;99.90;;;;;;5094211;28;20223;-57
2023/06/22 03:56:20;;;;;;;15.47;13.93;;;17.40;99.90;;;;;;5091954;28;20235;-57
2023/06/22 03:58:47;;;;;;;14.73;13.37;;;17.50;99.90;;;;;;5092244;28;21046;-57
2023/06/22 04:01:16;;;;;;;15.67;14.17;;;17.50;99.90;;;;;;5091879;28;20238;-57
2023/06/22 04:03:45;;;;;;;15.20;13.80;;;17.60;99.90;;;;;;5091999;28;20842;-57
2023/06/22 04:06:13;;;;;;;15.47;14.07;;;17.60;99.90;;;;;;5090845;28;20216;-57
2023/06/22 04:08:42;;;;;;;17.60;14.17;;;17.60;99.90;;;;;;5092039;28;20771;-57
2023/06/22 04:11:10;;;;;;;14.77;13.43;;;17.60;99.90;;;;;;5091381;28;20212;-57
2023/06/22 04:13:39;;;;;;;12.43;11.27;;;17.60;99.90;;;;;;5090537;28;20224;-57
2023/06/22 04:16:07;;;;;;;14.07;12.57;;;17.60;99.90;;;;;;5090896;28;20319;-57
2023/06/22 04:18:35;;;;;;;13.70;12.37;;;17.60;99.90;;;;;;5092248;28;20713;-57
2023/06/22 04:21:03;;;;;;;13.73;12.40;;;17.60;99.90;;;;;;5071554;28;20238;-57
2023/06/22 04:23:31;;;;;;;14.37;13.00;;;17.70;99.90;;;;;;5092943;28;20252;-57
2023/06/22 04:26:00;;;;;;;15.10;13.50;;;17.70;99.90;;;;;;5091945;28;20590;-57
2023/06/22 04:28:28;;;;;;;14.63;13.23;;;17.80;99.90;;;;;;5091974;28;20225;-56
2023/06/22 04:31:02;;;;;;;15.63;13.97;;;17.80;99.90;;;;;;5091652;28;20234;-57
2023/06/22 04:33:30;;;;;;;19.90;16.93;;;17.90;99.90;;;;;;5091863;28;20619;-57
2023/06/22 04:36:00;;;;;;;21.13;19.03;;;17.90;99.90;;;;;;5092026;28;20220;-57
2023/06/22 04:38:33;;;;;;;21.80;19.50;;;18.00;99.90;;;;;;5089674;28;20314;-57
2023/06/22 04:41:03;;;;;;;18.70;16.73;;;17.90;99.90;;;;;;5090322;28;20228;-57
2023/06/22 04:43:31;;;;;;;19.40;17.40;;;18.00;99.90;;;;;;5096298;28;20248;-57
2023/06/22 04:46:03;;;;;;;19.87;17.80;;;18.10;99.90;;;;;;5091837;28;20221;-57
2023/06/22 04:48:33;;;;;;;20.90;18.80;;;18.10;99.90;;;;;;5100623;28;20683;-57
2023/06/22 04:51:04;;;;;;;22.20;19.90;;;18.20;99.90;;;;;;5102863;28;20216;-57
2023/06/22 04:53:32;;;;;;;28.27;25.13;;;18.30;99.90;;;;;;5093592;28;20303;-57
2023/06/22 04:56:00;;;;;;;31.73;26.63;;;18.40;99.90;;;;;;5092429;28;20259;-57
2023/06/22 04:58:32;;;;;;;28.60;25.60;;;18.40;99.90;;;;;;5092155;28;20688;-57
2023/06/22 05:01:03;;;;;;;30.23;26.77;;;18.40;99.90;;;;;;5090198;28;20229;-57
2023/06/22 05:03:31;;;;;;;27.87;24.83;;;18.40;99.90;;;;;;5089994;28;20221;-57
2023/06/22 05:06:00;;;;;;;30.00;25.83;;;18.50;99.90;;;;;;5079699;28;20580;-57
2023/06/22 05:08:28;;;;;;;28.87;25.80;;;18.60;99.90;;;;;;5090906;28;20583;-57
2023/06/22 05:10:56;;;;;;;28.33;25.43;;;18.70;99.90;;;;;;5091878;28;20216;-57
2023/06/22 05:13:33;;;;;;;27.10;24.27;;;18.70;99.90;;;;;;5092531;28;20217;-60
2023/06/22 05:16:02;;;;;;;28.33;25.20;;;18.70;99.90;;;;;;5096591;28;20715;-60
2023/06/22 05:18:31;;;;;;;26.70;23.80;;;18.70;99.90;;;;;;5093095;28;20263;-60
2023/06/22 05:21:00;;;;;;;24.77;22.10;;;18.80;99.90;;;;;;5095222;28;20221;-60
2023/06/22 05:23:28;;;;;;;21.83;19.50;;;19.00;99.90;;;;;;5095593;28;20308;-60
2023/06/22 05:25:57;;;;;;;23.67;21.20;;;19.20;99.90;;;;;;5094088;28;20228;-60
2023/06/22 05:28:26;;;;;;;21.80;19.60;;;19.40;99.90;;;;;;5093093;28;20219;-60
2023/06/22 05:30:54;;;;;;;21.37;19.13;;;19.50;99.90;;;;;;5094681;28;20265;-60
2023/06/22 05:33:24;;;;;;;22.53;20.23;;;19.60;99.90;;;;;;5095420;28;20252;-60
2023/06/22 05:35:52;;;;;;;19.80;17.70;;;19.70;99.90;;;;;;5095372;28;20737;-60
2023/06/22 05:38:20;;;;;;;17.10;15.40;;;19.80;99.90;;;;;;5091736;28;20236;-60
2023/06/22 05:40:48;;;;;;;18.80;16.83;;;19.90;99.90;;;;;;5088818;28;20230;-60
2023/06/22 05:43:16;;;;;;;22.00;18.40;;;20.10;99.90;;;;;;5075104;28;20698;-60
2023/06/22 05:45:44;;;;;;;17.90;16.03;;;20.30;99.90;;;;;;5094802;28;20261;-60
2023/06/22 05:48:12;;;;;;;17.67;15.07;;;20.40;99.90;;;;;;5096412;28;20219;-60
2023/06/22 05:50:42;;;;;;;14.60;12.63;;;20.40;99.90;;;;;;5107975;28;20762;-60
2023/06/22 05:53:11;;;;;;;15.83;14.33;;;20.50;99.90;;;;;;5093289;28;20703;-60
2023/06/22 05:55:39;;;;;;;14.33;12.80;;;20.60;99.90;;;;;;5091380;28;20234;-60
2023/06/22 05:58:07;;;;;;;14.53;13.00;;;20.70;99.90;;;;;;5098832;28;20233;-60
2023/06/22 06:00:36;;;;;;;15.20;13.70;;;20.80;99.90;;;;;;5101492;28;20693;-60
2023/06/22 06:03:04;;;;;;;13.87;12.10;;;20.90;99.90;;;;;;5094614;28;20229;-59
2023/06/22 06:05:33;;;;;;;13.83;11.67;;;20.90;99.90;;;;;;5094601;28;20231;-59
2023/06/22 06:08:05;;;;;;;14.53;12.47;;;20.90;99.90;;;;;;5091015;28;20305;-60
2023/06/22 06:10:34;;;;;;;13.30;11.63;;;21.00;99.90;;;;;;5074301;28;20219;-60
2023/06/22 06:13:04;;;;;;;12.63;10.33;;;21.00;99.90;;;;;;5074427;28;20214;-60
2023/06/22 06:15:33;;;;;;;12.43;11.23;;;20.90;99.90;;;;;;5074282;28;20676;-60
2023/06/22 06:18:01;;;;;;;11.20;10.03;;;20.90;99.90;;;;;;5101130;28;20672;-60
2023/06/22 06:20:30;;;;;;;11.37;10.20;;;20.80;99.90;;;;;;5107326;28;20241;-60
2023/06/22 06:22:59;;;;;;;11.73;10.53;;;20.90;99.90;;;;;;5092687;28;20237;-60
2023/06/22 06:25:28;;;;;;;11.50;9.60;;;21.00;99.90;;;;;;5091408;28;20262;-60
2023/06/22 06:27:57;;;;;;;10.33;9.33;;;21.10;99.90;;;;;;5085934;28;20329;-60
2023/06/22 06:30:25;;;;;;;9.90;8.00;;;21.40;99.90;;;;;;5096068;28;20321;-60
2023/06/22 06:32:54;;;;;;;13.70;10.60;;;21.70;99.90;;;;;;5114906;28;20297;-59
2023/06/22 06:35:22;;;;;;;10.97;9.80;;;21.80;99.90;;;;;;5105901;28;20686;-60
2023/06/22 06:37:51;;;;;;;12.00;9.50;;;22.20;99.90;;;;;;5094038;28;20581;-60
2023/06/22 06:40:20;;;;;;;11.57;10.37;;;22.40;99.90;;;;;;5074428;28;20245;-60
2023/06/22 06:42:50;;;;;;;9.27;8.20;;;22.70;99.90;;;;;;5080103;28;20239;-59
2023/06/22 06:45:22;;;;;;;10.63;9.20;;;23.00;99.90;;;;;;5093905;28;20234;-60
2023/06/22 06:47:51;;;;;;;8.03;7.23;;;23.10;99.90;;;;;;5102174;28;20222;-60
2023/06/22 06:50:20;;;;;;;10.23;9.23;;;23.50;99.90;;;;;;5106974;28;20226;-60
2023/06/22 06:52:49;;;;;;;10.03;8.00;;;23.90;99.90;;;;;;5093701;28;20225;-59
2023/06/22 06:55:20;;;;;;;11.00;8.23;;;24.00;99.90;;;;;;5091745;28;20221;-60
2023/06/22 06:57:49;;;;;;;13.90;9.47;;;23.90;99.90;;;;;;5093519;28;20259;-60
2023/06/22 07:00:19;;;;;;;8.30;7.50;;;24.00;99.90;;;;;;5093331;28;20653;-59
2023/06/22 07:02:48;;;;;;;11.40;7.03;;;24.20;99.90;;;;;;5093526;28;20724;-59
2023/06/22 07:05:16;;;;;;;8.53;7.63;;;24.50;99.90;;;;;;5093680;28;20227;-58
2023/06/22 07:07:44;;;;;;;8.63;7.20;;;24.60;99.90;;;;;;5093451;28;20690;-60
2023/06/22 07:10:12;;;;;;;9.30;7.27;;;24.70;99.90;;;;;;5087683;28;20679;-59
2023/06/22 07:12:40;;;;;;;8.93;7.53;;;25.00;99.90;;;;;;5072987;28;20245;-59
2023/06/22 07:15:12;;;;;;;8.60;6.40;;;25.10;99.90;;;;;;5073166;28;20249;-59
2023/06/22 07:17:41;;;;;;;7.47;5.83;;;25.20;99.90;;;;;;5096903;28;20224;-59
2023/06/22 07:20:11;;;;;;;11.40;6.63;;;25.30;99.90;;;;;;5106064;28;20243;-59
2023/06/22 07:22:42;;;;;;;5.80;5.23;;;25.40;99.90;;;;;;5092749;28;20641;-59
2023/06/22 07:25:10;;;;;;;7.37;6.40;;;25.40;99.90;;;;;;5095844;28;20220;-59
2023/06/22 07:27:39;;;;;;;6.53;5.83;;;25.50;99.90;;;;;;5093275;28;20227;-59
2023/06/22 07:30:11;;;;;;;7.00;5.13;;;25.60;99.90;;;;;;5093499;28;20692;-59
2023/06/22 07:32:38;;;;;;;6.43;5.33;;;25.60;99.90;;;;;;5092704;28;20562;-59
2023/06/22 07:35:07;;;;;;;5.60;4.50;;;25.90;99.90;;;;;;5093099;28;20303;-59
2023/06/22 07:37:35;;;;;;;6.47;5.63;;;26.00;99.90;;;;;;5092644;28;20217;-59
2023/06/22 07:40:06;;;;;;;7.50;6.70;;;26.40;99.90;;;;;;5082567;28;20232;-59
2023/06/22 07:42:34;;;;;;;5.53;4.40;;;26.50;99.90;;;;;;5084718;28;20228;-59
2023/06/22 07:45:03;;;;;;;6.87;6.17;;;26.70;99.90;;;;;;5072815;28;20254;-59
2023/06/22 07:47:35;;;;;;;7.73;6.00;;;26.80;99.90;;;;;;5086542;28;20229;-59
2023/06/22 07:50:04;;;;;;;5.40;4.63;;;26.70;99.90;;;;;;5105045;28;20232;-59
2023/06/22 07:52:34;;;;;;;5.17;4.13;;;27.00;99.90;;;;;;5093414;28;20685;-59
2023/06/22 07:55:03;;;;;;;6.90;5.50;;;27.00;99.90;;;;;;5093995;28;20229;-59
2023/06/22 07:57:33;;;;;;;6.17;5.57;;;26.90;99.90;;;;;;5092862;28;20260;-59
2023/06/22 08:00:08;;;;;;;6.50;5.80;;;27.10;99.90;;;;;;5092954;28;20692;-59
2023/06/22 08:02:41;;;;;;;7.00;6.10;;;27.20;99.90;;;;;;5092303;28;20232;-59
2023/06/22 08:05:11;;;;;;;6.87;6.20;;;27.10;99.90;;;;;;5092847;28;20219;-59
2023/06/22 08:07:43;;;;;;;6.53;5.90;;;27.00;99.90;;;;;;5086902;28;20264;-59
2023/06/22 08:10:13;;;;;;;5.67;5.17;;;27.30;99.90;;;;;;5089108;28;20215;-59
2023/06/22 08:12:42;;;;;;;7.30;4.80;;;27.50;99.90;;;;;;5107138;28;20294;-59
2023/06/22 08:15:10;;;;;;;5.60;4.80;;;27.50;99.90;;;;;;5113100;28;20216;-59
2023/06/22 08:17:40;;;;;;;5.80;4.77;;;27.40;99.90;;;;;;5105482;28;20274;-58
2023/06/22 08:20:11;;;;;;;4.80;4.30;;;27.80;99.90;;;;;;5098481;28;20655;-59
2023/06/22 08:22:39;;;;;;;6.47;5.20;;;27.70;99.90;;;;;;5073293;28;20370;-59
2023/06/22 08:25:09;;;;;;;4.30;3.60;;;28.00;99.90;;;;;;5091370;28;20244;-59
2023/06/22 08:27:37;;;;;;;5.73;3.97;;;28.10;99.90;;;;;;5077374;28;20261;-59
2023/06/22 08:30:07;;;;;;;5.50;4.07;;;27.90;99.90;;;;;;5072415;28;20642;-59
2023/06/22 08:32:35;;;;;;;6.10;4.23;;;28.30;99.90;;;;;;5071788;28;20715;-59
2023/06/22 08:35:08;;;;;;;4.27;3.60;;;28.30;99.90;;;;;;5087091;28;20217;-59
2023/06/22 08:37:36;;;;;;;4.13;3.50;;;28.60;99.90;;;;;;5091595;28;20279;-59
2023/06/22 08:40:09;;;;;;;6.80;3.10;;;28.60;99.90;;;;;;5092321;28;20242;-59
2023/06/22 08:42:37;;;;;;;4.63;3.47;;;28.90;99.90;;;;;;5072078;28;20249;-59
2023/06/22 08:45:07;;;;;;;3.43;3.10;;;28.90;99.90;;;;;;5072234;28;20227;-59
2023/06/22 08:47:35;;;;;;;4.57;4.17;;;29.20;99.90;;;;;;5095101;28;20233;-58
2023/06/22 08:50:05;;;;;;;5.77;4.17;;;29.30;99.90;;;;;;5096225;28;20690;-59
2023/06/22 08:52:33;;;;;;;4.13;3.70;;;28.90;99.90;;;;;;5076206;28;20571;-59
2023/06/22 08:55:02;;;;;;;4.37;3.40;;;29.10;99.90;;;;;;5094834;28;20600;-58
2023/06/22 08:57:32;;;;;;;4.10;3.27;;;29.40;99.90;;;;;;5095901;28;20318;-58
2023/06/22 09:00:00;;;;;;;3.70;3.10;;;29.00;99.90;;;;;;5096138;28;20228;-59
2023/06/22 09:02:30;;;;;;;3.20;2.90;;;28.60;99.90;;;;;;5094954;28;20265;-58
2023/06/22 09:04:59;;;;;;;5.50;3.60;;;28.80;99.90;;;;;;5095936;28;20720;-59
2023/06/22 09:07:29;;;;;;;4.20;3.20;;;28.90;99.90;;;;;;5095771;28;20300;-58
2023/06/22 09:09:57;;;;;;;4.87;2.60;;;29.30;99.90;;;;;;5094265;28;20589;-59
2023/06/22 09:12:30;;;;;;;3.53;3.17;;;29.70;99.90;;;;;;5089711;28;20223;-58
2023/06/22 09:14:59;;;;;;;2.50;2.13;;;30.00;99.90;;;;;;5095148;28;20632;-58
2023/06/22 09:17:28;;;;;;;4.47;2.60;;;29.90;99.90;;;;;;5102619;28;20241;-59
2023/06/22 09:19:56;;;;;;;3.97;2.53;;;29.90;99.90;;;;;;5107402;28;20713;-59
2023/06/22 09:22:28;;;;;;;2.53;2.17;;;30.00;99.90;;;;;;5090803;28;20223;-58
2023/06/22 09:24:59;;;;;;;3.77;2.87;;;30.50;99.90;;;;;;5090743;28;20647;-59
2023/06/22 09:27:27;;;;;;;5.27;2.43;;;30.50;99.90;;;;;;5095438;28;20309;-58
2023/06/22 09:29:58;;;;;;;4.27;2.90;;;30.40;99.90;;;;;;5095531;28;20215;-59
2023/06/22 09:32:26;;;;;;;4.17;2.90;;;30.30;99.90;;;;;;5094843;28;20230;-59
2023/06/22 09:34:54;;;;;;;4.33;2.90;;;30.40;99.90;;;;;;5095320;28;20277;-58
2023/06/22 09:37:22;;;;;;;3.10;2.80;;;30.50;99.90;;;;;;5095571;28;20254;-59
2023/06/22 09:39:50;;;;;;;5.23;3.37;;;30.40;99.90;;;;;;5094730;28;20306;-59
2023/06/22 09:42:20;;;;;;;4.60;2.80;;;30.50;99.90;;;;;;5076496;28;20310;-59
2023/06/22 09:44:48;;;;;;;3.10;2.50;;;30.60;99.90;;;;;;5074839;28;20223;-59
2023/06/22 09:47:17;;;;;;;4.50;2.80;;;30.70;99.90;;;;;;5083592;28;20277;-59
2023/06/22 09:49:45;;;;;;;3.43;2.87;;;30.80;99.90;;;;;;5100918;28;20301;-59
2023/06/22 09:52:16;;;;;;;3.83;2.93;;;30.80;99.90;;;;;;5095225;28;20259;-59
2023/06/22 09:54:44;;;;;;;5.37;2.57;;;31.10;99.90;;;;;;5097765;28;20250;-58
2023/06/22 09:57:12;;;;;;;3.50;2.27;;;31.50;99.90;;;;;;5094721;28;20222;-57
2023/06/22 09:59:42;;;;;;;3.87;2.77;;;31.70;99.90;;;;;;5094303;28;20581;-59
2023/06/22 10:02:10;;;;;;;4.67;2.70;;;31.50;99.90;;;;;;5094423;28;20245;-59
2023/06/22 10:04:40;;;;;;;5.23;2.80;;;31.90;99.90;;;;;;5093422;28;20250;-59
2023/06/22 10:07:08;;;;;;;3.50;2.80;;;32.10;99.90;;;;;;5094884;28;20335;-59
2023/06/22 10:09:36;;;;;;;3.30;2.80;;;32.10;99.90;;;;;;5087944;28;20246;-59
2023/06/22 10:12:04;;;;;;;4.53;2.80;;;32.30;99.90;;;;;;5093392;28;20598;-58
2023/06/22 10:14:32;;;;;;;4.13;2.63;;;32.40;99.90;;;;;;5093762;28;20315;-58
2023/06/22 10:17:03;;;;;;;4.83;4.07;;;32.60;99.90;;;;;;5096913;28;20688;-59
2023/06/22 10:19:31;;;;;;;4.30;3.40;;;32.30;99.90;;;;;;5103710;28;20577;-58
2023/06/22 10:21:59;;;;;;;5.33;3.53;;;32.00;99.90;;;;;;5091011;28;20306;-58
2023/06/22 10:24:27;;;;;;;6.00;4.07;;;31.80;99.90;;;;;;5091983;28;20652;-58
2023/06/22 10:26:55;;;;;;;6.07;3.93;;;31.70;99.90;;;;;;5092297;28;20216;-58
2023/06/22 10:29:23;;;;;;;5.53;3.90;;;31.10;99.90;;;;;;5618882;22;20236;-58
2023/06/22 10:31:51;;;;;;;3.93;3.40;;;31.50;99.90;;;;;;5066622;28;20228;-59
2023/06/22 10:34:21;;;;;;;7.07;4.23;;;31.50;99.90;;;;;;5071693;28;20224;-58
2023/06/22 10:36:49;;;;;;;4.67;3.30;;;31.80;99.90;;;;;;5071941;28;20627;-58
2023/06/22 10:39:17;;;;;;;5.67;3.67;;;32.10;99.90;;;;;;5067360;28;20219;-58
2023/06/22 10:41:45;;;;;;;4.27;3.27;;;32.40;99.90;;;;;;5073781;28;20693;-58
2023/06/22 10:44:13;;;;;;;4.90;3.23;;;32.60;99.80;;;;;;5073846;28;20222;-59
2023/06/22 10:46:41;;;;;;;5.07;3.67;;;32.50;99.90;;;;;;5073851;28;20254;-58
2023/06/22 10:49:09;;;;;;;5.63;3.80;;;32.20;99.90;;;;;;5066989;28;20230;-58
2023/06/22 10:51:39;;;;;;;5.13;3.23;;;31.90;99.90;;;;;;5064520;28;20700;-56
2023/06/22 10:54:07;;;;;;;6.73;4.10;;;32.30;99.90;;;;;;5063091;28;20222;-58
2023/06/22 10:56:35;;;;;;;3.97;2.90;;;32.30;99.90;;;;;;5075648;28;20218;-58
2023/06/22 10:59:03;;;;;;;4.70;3.43;;;32.80;99.90;;;;;;5093954;28;20220;-58
2023/06/22 11:01:33;;;;;;;3.63;3.33;;;32.80;99.70;;;;;;5082610;28;20807;-58
2023/06/22 11:04:05;;;;;;;4.40;3.40;;;32.70;99.50;;;;;;5053588;28;20223;-58
2023/06/22 11:06:33;;;;;;;4.93;4.40;;;32.60;99.50;;;;;;5061380;28;20229;-58
2023/06/22 11:09:03;;;;;;;4.47;3.63;;;32.30;99.20;;;;;;5063372;28;20256;-58
2023/06/22 11:11:53;;;;;;;4.47;3.17;;;32.00;99.90;;;;;;5064119;28;20251;-58
2023/06/22 11:14:22;;;;;;;4.43;3.60;;;32.40;99.90;;;;;;5058153;28;20264;-59
2023/06/22 11:16:50;;;;;;;4.57;4.20;;;32.40;99.50;;;;;;5061294;28;20255;-58
2023/06/22 11:19:18;;;;;;;4.77;4.20;;;32.50;99.10;;;;;;5068816;28;20716;-58
2023/06/22 11:21:46;;;;;;;5.23;3.80;;;32.50;99.20;;;;;;5068054;28;20226;-58
2023/06/22 11:24:16;;;;;;;4.17;3.77;;;32.00;99.50;;;;;;5058949;28;20696;-58
2023/06/22 11:26:45;;;;;;;4.83;3.57;;;31.90;99.80;;;;;;5082292;28;20222;-58
2023/06/22 11:29:13;;;;;;;6.10;4.67;;;31.50;99.90;;;;;;5071940;28;20295;-58
2023/06/22 11:31:54;;;;;;;4.63;3.00;;;30.70;99.90;;;;;;5070244;28;20653;-58
2023/06/22 11:34:22;;;;;;;4.77;4.37;;;30.70;99.90;;;;;;5063220;28;20286;-58
2023/06/22 11:36:51;;;;;;;4.77;3.80;;;30.90;99.90;;;;;;5059387;28;20253;-58
2023/06/22 11:39:20;;;;;;;4.40;3.83;;;31.20;99.90;;;;;;5069701;28;20215;-58
2023/06/22 11:42:06;;;;;;;4.83;4.10;;;31.40;99.90;;;;;;5036072;28;20221;-58
2023/06/22 11:44:34;;;;;;;6.03;4.43;;;31.00;99.90;;;;;;5051091;28;20243;-58
2023/06/22 11:47:04;;;;;;;4.03;3.63;;;30.80;99.90;;;;;;5058093;28;20228;-58
2023/06/22 11:49:32;;;;;;;5.80;3.60;;;30.70;99.90;;;;;;5064558;28;20722;-58
2023/06/22 11:52:00;;;;;;;5.43;3.60;;;30.80;99.90;;;;;;5062986;28;20305;-58
2023/06/22 11:54:29;;;;;;;5.13;3.10;;;31.10;99.90;;;;;;5061528;28;20221;-57
2023/06/22 11:56:57;;;;;;;5.23;3.37;;;31.40;99.90;;;;;;5064856;28;20227;-58
2023/06/22 11:59:25;;;;;;;5.57;4.00;;;31.90;99.90;;;;;;5061127;28;20220;-57
2023/06/22 12:01:53;;;;;;;5.20;4.70;;;32.00;99.70;;;;;;5065058;28;20318;-58
2023/06/22 12:04:21;;;;;;;6.00;4.47;;;31.60;99.80;;;;;;5061352;28;20308;-58
2023/06/22 12:06:50;;;;;;;5.93;5.03;;;31.40;99.70;;;;;;5059471;28;20637;-58
2023/06/22 12:09:18;;;;;;;3.87;3.47;;;31.10;99.90;;;;;;5072111;28;20254;-58
2023/06/22 12:11:47;;;;;;;5.53;4.00;;;31.20;99.90;;;;;;5057148;28;20220;-58
2023/06/22 12:14:15;;;;;;;4.60;3.70;;;31.20;99.90;;;;;;5061160;28;20231;-58
2023/06/22 12:16:44;;;;;;;6.30;4.83;;;31.10;99.90;;;;;;5052363;28;20226;-58
2023/06/22 12:19:12;;;;;;;6.43;4.70;;;31.10;99.90;;;;;;5050574;28;20280;-58
2023/06/22 12:21:41;;;;;;;6.57;4.20;;;31.00;99.90;;;;;;5058290;28;20244;-59
2023/06/22 12:24:09;;;;;;;7.03;4.10;;;31.00;99.90;;;;;;5066798;28;20223;-58
2023/06/22 12:26:37;;;;;;;7.23;3.97;;;31.00;99.90;;;;;;5060063;28;20226;-58
2023/06/22 12:29:06;;;;;;;5.00;4.50;;;31.10;99.90;;;;;;5076282;28;20249;-58
2023/06/22 12:31:34;;;;;;;4.43;4.00;;;31.30;99.90;;;;;;5072898;28;20257;-58
2023/06/22 12:34:02;;;;;;;4.43;3.87;;;31.30;99.90;;;;;;5036379;28;20702;-58
2023/06/22 12:36:30;;;;;;;5.27;4.40;;;31.20;99.90;;;;;;5036342;28;20227;-57
2023/06/22 12:38:59;;;;;;;4.90;3.90;;;31.20;99.90;;;;;;5036384;28;20311;-58
2023/06/22 12:41:27;;;;;;;5.23;4.40;;;31.40;99.90;;;;;;5036094;28;20234;-58
2023/06/22 12:43:55;;;;;;;5.50;4.50;;;31.40;99.90;;;;;;5036148;28;20223;-57
2023/06/22 12:46:24;;;;;;;4.70;4.30;;;31.30;99.90;;;;;;5055635;28;20233;-57
2023/06/22 12:48:55;;;;;;;5.87;4.40;;;31.10;99.90;;;;;;5067130;28;20292;-58
2023/06/22 12:51:24;;;;;;;4.97;4.40;;;30.80;99.90;;;;;;5064245;28;20218;-58